sensor_id;sensor_type;location;lat;lon;timestamp;P1;durP1;ratioP1;P2;durP2;ratioP2
9222;SDS011;7557;51.698;3.942;2023-02-08T00:02:18;22.27;;;16.50;;
9222;SDS011;7557;51.698;3.942;2023-02-08T00:04:45;23.03;;;17.47;;
9222;SDS011;7557;51.698;3.942;2023-02-08T00:07:13;24.83;;;18.07;;
9222;SDS011;7557;51.698;3.942;2023-02-08T00:09:41;23.67;;;17.47;;
9222;SDS011;7557;51.698;3.942;2023-02-08T00:12:08;23.63;;;17.13;;
9222;SDS011;7557;51.698;3.942;2023-02-08T00:14:36;22.27;;;17.83;;
9222;SDS011;7557;51.698;3.942;2023-02-08T00:17:03;24.73;;;18.20;;
9222;SDS011;7557;51.698;3.942;2023-02-08T00:19:32;23.70;;;17.67;;
9222;SDS011;7557;51.698;3.942;2023-02-08T00:22:00;23.97;;;17.23;;
9222;SDS011;7557;51.698;3.942;2023-02-08T00:24:27;26.33;;;18.43;;
9222;SDS011;7557;51.698;3.942;2023-02-08T00:26:55;26.13;;;18.60;;
9222;SDS011;7557;51.698;3.942;2023-02-08T00:29:23;24.10;;;17.63;;
9222;SDS011;7557;51.698;3.942;2023-02-08T00:31:50;25.37;;;19.90;;
9222;SDS011;7557;51.698;3.942;2023-02-08T00:34:21;25.27;;;17.80;;
9222;SDS011;7557;51.698;3.942;2023-02-08T00:36:50;22.63;;;16.83;;
9222;SDS011;7557;51.698;3.942;2023-02-08T00:39:18;20.10;;;15.83;;
9222;SDS011;7557;51.698;3.942;2023-02-08T00:41:46;22.33;;;17.07;;
9222;SDS011;7557;51.698;3.942;2023-02-08T00:44:13;23.93;;;17.10;;
9222;SDS011;7557;51.698;3.942;2023-02-08T00:46:41;20.53;;;16.10;;
9222;SDS011;7557;51.698;3.942;2023-02-08T00:49:09;22.40;;;17.77;;
9222;SDS011;7557;51.698;3.942;2023-02-08T00:51:36;21.70;;;16.33;;
9222;SDS011;7557;51.698;3.942;2023-02-08T00:54:05;24.17;;;16.80;;
9222;SDS011;7557;51.698;3.942;2023-02-08T00:56:36;20.70;;;16.03;;
9222;SDS011;7557;51.698;3.942;2023-02-08T00:59:03;22.37;;;16.63;;
9222;SDS011;7557;51.698;3.942;2023-02-08T01:01:31;21.57;;;15.03;;
9222;SDS011;7557;51.698;3.942;2023-02-08T01:03:59;20.33;;;15.27;;
9222;SDS011;7557;51.698;3.942;2023-02-08T01:06:27;20.43;;;15.47;;
9222;SDS011;7557;51.698;3.942;2023-02-08T01:08:54;20.07;;;15.30;;
9222;SDS011;7557;51.698;3.942;2023-02-08T01:11:24;21.17;;;15.20;;
9222;SDS011;7557;51.698;3.942;2023-02-08T01:13:52;23.63;;;16.60;;
9222;SDS011;7557;51.698;3.942;2023-02-08T01:16:27;19.70;;;14.93;;
9222;SDS011;7557;51.698;3.942;2023-02-08T01:18:56;20.10;;;15.40;;
9222;SDS011;7557;51.698;3.942;2023-02-08T01:21:25;20.27;;;14.13;;
9222;SDS011;7557;51.698;3.942;2023-02-08T01:23:54;20.00;;;14.57;;
9222;SDS011;7557;51.698;3.942;2023-02-08T01:26:24;21.73;;;16.23;;
9222;SDS011;7557;51.698;3.942;2023-02-08T01:28:52;19.90;;;15.40;;
9222;SDS011;7557;51.698;3.942;2023-02-08T01:31:22;18.77;;;15.03;;
9222;SDS011;7557;51.698;3.942;2023-02-08T01:33:52;17.40;;;14.60;;
9222;SDS011;7557;51.698;3.942;2023-02-08T01:36:22;19.90;;;15.47;;
9222;SDS011;7557;51.698;3.942;2023-02-08T01:38:50;21.53;;;15.70;;
9222;SDS011;7557;51.698;3.942;2023-02-08T01:41:18;23.37;;;16.53;;
9222;SDS011;7557;51.698;3.942;2023-02-08T01:44:00;23.63;;;16.80;;
9222;SDS011;7557;51.698;3.942;2023-02-08T01:46:31;23.27;;;16.83;;
9222;SDS011;7557;51.698;3.942;2023-02-08T01:49:01;22.13;;;16.63;;
9222;SDS011;7557;51.698;3.942;2023-02-08T01:51:32;26.90;;;17.97;;
9222;SDS011;7557;51.698;3.942;2023-02-08T01:54:03;22.03;;;17.10;;
9222;SDS011;7557;51.698;3.942;2023-02-08T01:56:34;25.30;;;18.87;;
9222;SDS011;7557;51.698;3.942;2023-02-08T01:59:05;27.70;;;20.07;;
9222;SDS011;7557;51.698;3.942;2023-02-08T02:01:36;26.47;;;19.13;;
9222;SDS011;7557;51.698;3.942;2023-02-08T02:04:06;27.67;;;19.87;;
9222;SDS011;7557;51.698;3.942;2023-02-08T02:06:34;33.37;;;20.03;;
9222;SDS011;7557;51.698;3.942;2023-02-08T02:09:11;26.30;;;18.93;;
9222;SDS011;7557;51.698;3.942;2023-02-08T02:11:43;26.37;;;18.67;;
9222;SDS011;7557;51.698;3.942;2023-02-08T02:14:12;25.30;;;17.87;;
9222;SDS011;7557;51.698;3.942;2023-02-08T02:16:40;22.87;;;17.23;;
9222;SDS011;7557;51.698;3.942;2023-02-08T02:19:12;26.70;;;18.17;;
9222;SDS011;7557;51.698;3.942;2023-02-08T02:21:59;24.03;;;16.83;;
9222;SDS011;7557;51.698;3.942;2023-02-08T02:24:57;20.90;;;15.97;;
9222;SDS011;7557;51.698;3.942;2023-02-08T02:28:12;22.30;;;16.77;;
9222;SDS011;7557;51.698;3.942;2023-02-08T02:31:22;19.70;;;15.23;;
9222;SDS011;7557;51.698;3.942;2023-02-08T02:34:05;24.00;;;16.70;;
9222;SDS011;7557;51.698;3.942;2023-02-08T02:36:43;25.27;;;16.70;;
9222;SDS011;7557;51.698;3.942;2023-02-08T02:39:17;22.23;;;15.50;;
9222;SDS011;7557;51.698;3.942;2023-02-08T02:41:55;23.07;;;15.93;;
9222;SDS011;7557;51.698;3.942;2023-02-08T02:44:49;23.40;;;16.20;;
9222;SDS011;7557;51.698;3.942;2023-02-08T02:47:28;21.33;;;15.53;;
9222;SDS011;7557;51.698;3.942;2023-02-08T02:50:02;20.07;;;15.17;;
9222;SDS011;7557;51.698;3.942;2023-02-08T02:52:37;22.67;;;16.70;;
9222;SDS011;7557;51.698;3.942;2023-02-08T02:55:09;20.83;;;14.50;;
9222;SDS011;7557;51.698;3.942;2023-02-08T02:57:40;20.23;;;16.00;;
9222;SDS011;7557;51.698;3.942;2023-02-08T03:00:10;21.07;;;16.90;;
9222;SDS011;7557;51.698;3.942;2023-02-08T03:02:46;21.30;;;15.37;;
9222;SDS011;7557;51.698;3.942;2023-02-08T03:05:13;22.57;;;16.13;;
9222;SDS011;7557;51.698;3.942;2023-02-08T03:07:45;24.00;;;17.23;;
9222;SDS011;7557;51.698;3.942;2023-02-08T03:10:32;25.90;;;16.93;;
9222;SDS011;7557;51.698;3.942;2023-02-08T03:13:14;20.73;;;16.33;;
9222;SDS011;7557;51.698;3.942;2023-02-08T03:15:54;22.27;;;15.97;;
9222;SDS011;7557;51.698;3.942;2023-02-08T03:18:35;21.97;;;15.77;;
9222;SDS011;7557;51.698;3.942;2023-02-08T03:21:16;21.30;;;16.20;;
9222;SDS011;7557;51.698;3.942;2023-02-08T03:23:54;24.07;;;16.30;;
9222;SDS011;7557;51.698;3.942;2023-02-08T03:26:29;21.20;;;15.70;;
9222;SDS011;7557;51.698;3.942;2023-02-08T03:29:02;20.17;;;16.00;;
9222;SDS011;7557;51.698;3.942;2023-02-08T03:31:37;23.67;;;17.50;;
9222;SDS011;7557;51.698;3.942;2023-02-08T03:34:14;27.50;;;16.70;;
9222;SDS011;7557;51.698;3.942;2023-02-08T03:36:46;22.07;;;16.03;;
9222;SDS011;7557;51.698;3.942;2023-02-08T03:39:20;25.13;;;16.47;;
9222;SDS011;7557;51.698;3.942;2023-02-08T03:41:54;20.73;;;14.50;;
9222;SDS011;7557;51.698;3.942;2023-02-08T03:44:28;21.20;;;14.50;;
9222;SDS011;7557;51.698;3.942;2023-02-08T03:47:00;23.60;;;15.17;;
9222;SDS011;7557;51.698;3.942;2023-02-08T03:49:34;18.60;;;14.90;;
9222;SDS011;7557;51.698;3.942;2023-02-08T03:52:05;20.80;;;15.53;;
9222;SDS011;7557;51.698;3.942;2023-02-08T03:54:37;16.50;;;13.03;;
9222;SDS011;7557;51.698;3.942;2023-02-08T03:57:10;19.23;;;14.87;;
9222;SDS011;7557;51.698;3.942;2023-02-08T03:59:42;18.60;;;14.43;;
9222;SDS011;7557;51.698;3.942;2023-02-08T04:02:14;16.77;;;13.60;;
9222;SDS011;7557;51.698;3.942;2023-02-08T04:04:47;16.60;;;13.60;;
9222;SDS011;7557;51.698;3.942;2023-02-08T04:07:17;19.47;;;14.27;;
9222;SDS011;7557;51.698;3.942;2023-02-08T04:09:45;17.93;;;14.97;;
9222;SDS011;7557;51.698;3.942;2023-02-08T04:12:12;21.10;;;15.57;;
9222;SDS011;7557;51.698;3.942;2023-02-08T04:14:40;19.13;;;14.70;;
9222;SDS011;7557;51.698;3.942;2023-02-08T04:17:08;18.67;;;15.10;;
9222;SDS011;7557;51.698;3.942;2023-02-08T04:19:35;19.47;;;14.50;;
9222;SDS011;7557;51.698;3.942;2023-02-08T04:22:04;18.47;;;14.20;;
9222;SDS011;7557;51.698;3.942;2023-02-08T04:24:31;22.53;;;15.67;;
9222;SDS011;7557;51.698;3.942;2023-02-08T04:26:59;18.90;;;14.67;;
9222;SDS011;7557;51.698;3.942;2023-02-08T04:29:26;19.83;;;15.40;;
9222;SDS011;7557;51.698;3.942;2023-02-08T04:31:54;19.73;;;14.77;;
9222;SDS011;7557;51.698;3.942;2023-02-08T04:34:21;20.43;;;14.30;;
9222;SDS011;7557;51.698;3.942;2023-02-08T04:36:49;19.47;;;14.57;;
9222;SDS011;7557;51.698;3.942;2023-02-08T04:39:17;17.40;;;13.50;;
9222;SDS011;7557;51.698;3.942;2023-02-08T04:41:45;17.90;;;14.67;;
9222;SDS011;7557;51.698;3.942;2023-02-08T04:44:12;17.43;;;13.33;;
9222;SDS011;7557;51.698;3.942;2023-02-08T04:46:40;19.07;;;13.53;;
9222;SDS011;7557;51.698;3.942;2023-02-08T04:49:07;19.23;;;14.63;;
9222;SDS011;7557;51.698;3.942;2023-02-08T04:51:35;16.43;;;13.33;;
9222;SDS011;7557;51.698;3.942;2023-02-08T04:54:03;17.83;;;13.40;;
9222;SDS011;7557;51.698;3.942;2023-02-08T04:56:31;17.00;;;13.30;;
9222;SDS011;7557;51.698;3.942;2023-02-08T04:58:59;18.20;;;13.57;;
9222;SDS011;7557;51.698;3.942;2023-02-08T05:01:27;15.73;;;13.00;;
9222;SDS011;7557;51.698;3.942;2023-02-08T05:03:57;17.90;;;14.20;;
9222;SDS011;7557;51.698;3.942;2023-02-08T05:06:25;17.80;;;12.77;;
9222;SDS011;7557;51.698;3.942;2023-02-08T05:08:52;15.40;;;12.40;;
9222;SDS011;7557;51.698;3.942;2023-02-08T05:11:20;14.83;;;12.63;;
9222;SDS011;7557;51.698;3.942;2023-02-08T05:13:50;18.13;;;14.40;;
9222;SDS011;7557;51.698;3.942;2023-02-08T05:16:18;18.63;;;14.03;;
9222;SDS011;7557;51.698;3.942;2023-02-08T05:18:45;17.73;;;13.73;;
9222;SDS011;7557;51.698;3.942;2023-02-08T05:21:13;16.93;;;13.23;;
9222;SDS011;7557;51.698;3.942;2023-02-08T05:23:40;17.17;;;13.40;;
9222;SDS011;7557;51.698;3.942;2023-02-08T05:26:09;15.90;;;12.90;;
9222;SDS011;7557;51.698;3.942;2023-02-08T05:28:37;18.27;;;14.10;;
9222;SDS011;7557;51.698;3.942;2023-02-08T05:31:13;17.87;;;14.07;;
9222;SDS011;7557;51.698;3.942;2023-02-08T05:33:42;18.43;;;13.60;;
9222;SDS011;7557;51.698;3.942;2023-02-08T05:36:10;18.97;;;13.27;;
9222;SDS011;7557;51.698;3.942;2023-02-08T05:38:37;15.63;;;13.23;;
9222;SDS011;7557;51.698;3.942;2023-02-08T05:41:04;18.30;;;12.97;;
9222;SDS011;7557;51.698;3.942;2023-02-08T05:43:32;20.60;;;13.50;;
9222;SDS011;7557;51.698;3.942;2023-02-08T05:45:59;15.70;;;13.30;;
9222;SDS011;7557;51.698;3.942;2023-02-08T05:48:29;19.57;;;14.50;;
9222;SDS011;7557;51.698;3.942;2023-02-08T05:50:57;17.43;;;13.60;;
9222;SDS011;7557;51.698;3.942;2023-02-08T05:53:24;19.77;;;14.27;;
9222;SDS011;7557;51.698;3.942;2023-02-08T05:55:52;18.30;;;14.00;;
9222;SDS011;7557;51.698;3.942;2023-02-08T05:58:20;18.67;;;14.40;;
9222;SDS011;7557;51.698;3.942;2023-02-08T06:00:48;20.23;;;14.97;;
9222;SDS011;7557;51.698;3.942;2023-02-08T06:03:15;21.77;;;14.33;;
9222;SDS011;7557;51.698;3.942;2023-02-08T06:05:46;19.20;;;14.47;;
9222;SDS011;7557;51.698;3.942;2023-02-08T06:08:13;19.17;;;14.20;;
9222;SDS011;7557;51.698;3.942;2023-02-08T06:10:41;18.47;;;13.77;;
9222;SDS011;7557;51.698;3.942;2023-02-08T06:13:10;19.27;;;14.47;;
9222;SDS011;7557;51.698;3.942;2023-02-08T06:15:37;17.17;;;13.83;;
9222;SDS011;7557;51.698;3.942;2023-02-08T06:18:05;16.37;;;13.73;;
9222;SDS011;7557;51.698;3.942;2023-02-08T06:20:33;17.90;;;13.80;;
9222;SDS011;7557;51.698;3.942;2023-02-08T06:23:02;19.43;;;13.87;;
9222;SDS011;7557;51.698;3.942;2023-02-08T06:25:30;20.73;;;15.03;;
9222;SDS011;7557;51.698;3.942;2023-02-08T06:27:57;23.97;;;15.40;;
9222;SDS011;7557;51.698;3.942;2023-02-08T06:30:25;19.33;;;13.87;;
9222;SDS011;7557;51.698;3.942;2023-02-08T06:32:52;20.63;;;13.53;;
9222;SDS011;7557;51.698;3.942;2023-02-08T06:35:19;19.43;;;14.57;;
9222;SDS011;7557;51.698;3.942;2023-02-08T06:37:47;17.53;;;14.30;;
9222;SDS011;7557;51.698;3.942;2023-02-08T06:40:16;17.23;;;13.77;;
9222;SDS011;7557;51.698;3.942;2023-02-08T06:42:45;19.53;;;14.17;;
9222;SDS011;7557;51.698;3.942;2023-02-08T06:45:12;19.30;;;15.23;;
9222;SDS011;7557;51.698;3.942;2023-02-08T06:47:40;20.90;;;15.27;;
9222;SDS011;7557;51.698;3.942;2023-02-08T06:50:08;20.73;;;14.80;;
9222;SDS011;7557;51.698;3.942;2023-02-08T06:52:35;18.70;;;13.70;;
9222;SDS011;7557;51.698;3.942;2023-02-08T06:55:04;17.57;;;14.50;;
9222;SDS011;7557;51.698;3.942;2023-02-08T06:57:33;18.83;;;13.63;;
9222;SDS011;7557;51.698;3.942;2023-02-08T07:00:01;16.53;;;14.20;;
9222;SDS011;7557;51.698;3.942;2023-02-08T07:02:29;18.07;;;13.33;;
9222;SDS011;7557;51.698;3.942;2023-02-08T07:04:56;18.57;;;14.90;;
9222;SDS011;7557;51.698;3.942;2023-02-08T07:07:24;23.70;;;14.37;;
9222;SDS011;7557;51.698;3.942;2023-02-08T07:09:53;17.50;;;13.93;;
9222;SDS011;7557;51.698;3.942;2023-02-08T07:12:20;21.40;;;14.07;;
9222;SDS011;7557;51.698;3.942;2023-02-08T07:14:49;18.67;;;13.93;;
9222;SDS011;7557;51.698;3.942;2023-02-08T07:17:17;19.87;;;14.17;;
9222;SDS011;7557;51.698;3.942;2023-02-08T07:19:45;18.13;;;14.37;;
9222;SDS011;7557;51.698;3.942;2023-02-08T07:22:12;20.80;;;15.10;;
9222;SDS011;7557;51.698;3.942;2023-02-08T07:24:40;18.37;;;13.90;;
9222;SDS011;7557;51.698;3.942;2023-02-08T07:27:08;20.90;;;15.40;;
9222;SDS011;7557;51.698;3.942;2023-02-08T07:29:37;18.27;;;14.37;;
9222;SDS011;7557;51.698;3.942;2023-02-08T07:32:07;17.73;;;13.87;;
9222;SDS011;7557;51.698;3.942;2023-02-08T07:34:37;21.73;;;15.10;;
9222;SDS011;7557;51.698;3.942;2023-02-08T07:37:05;22.33;;;15.70;;
9222;SDS011;7557;51.698;3.942;2023-02-08T07:39:33;27.90;;;15.57;;
9222;SDS011;7557;51.698;3.942;2023-02-08T07:42:01;20.10;;;15.13;;
9222;SDS011;7557;51.698;3.942;2023-02-08T07:44:29;18.47;;;14.37;;
9222;SDS011;7557;51.698;3.942;2023-02-08T07:46:57;17.77;;;15.03;;
9222;SDS011;7557;51.698;3.942;2023-02-08T07:49:27;20.10;;;16.20;;
9222;SDS011;7557;51.698;3.942;2023-02-08T07:51:55;21.83;;;19.35;;
9222;SDS011;7557;51.698;3.942;2023-02-08T07:54:22;22.77;;;17.60;;
9222;SDS011;7557;51.698;3.942;2023-02-08T07:56:50;23.43;;;17.20;;
9222;SDS011;7557;51.698;3.942;2023-02-08T07:59:18;18.80;;;15.63;;
9222;SDS011;7557;51.698;3.942;2023-02-08T08:01:46;22.00;;;16.77;;
9222;SDS011;7557;51.698;3.942;2023-02-08T08:04:13;20.77;;;15.67;;
9222;SDS011;7557;51.698;3.942;2023-02-08T08:06:42;20.20;;;15.07;;
9222;SDS011;7557;51.698;3.942;2023-02-08T08:09:10;18.77;;;14.90;;
9222;SDS011;7557;51.698;3.942;2023-02-08T08:11:39;22.33;;;16.93;;
9222;SDS011;7557;51.698;3.942;2023-02-08T08:14:07;18.40;;;14.53;;
9222;SDS011;7557;51.698;3.942;2023-02-08T08:16:35;21.13;;;15.93;;
9222;SDS011;7557;51.698;3.942;2023-02-08T08:19:02;22.00;;;16.30;;
9222;SDS011;7557;51.698;3.942;2023-02-08T08:21:30;24.63;;;20.00;;
9222;SDS011;7557;51.698;3.942;2023-02-08T08:23:59;23.83;;;17.40;;
9222;SDS011;7557;51.698;3.942;2023-02-08T08:26:26;24.17;;;21.48;;
9222;SDS011;7557;51.698;3.942;2023-02-08T08:28:54;19.40;;;16.87;;
9222;SDS011;7557;51.698;3.942;2023-02-08T08:31:22;22.60;;;17.50;;
9222;SDS011;7557;51.698;3.942;2023-02-08T08:33:49;21.17;;;17.37;;
9222;SDS011;7557;51.698;3.942;2023-02-08T08:36:17;23.17;;;18.17;;
9222;SDS011;7557;51.698;3.942;2023-02-08T08:38:44;22.57;;;18.77;;
9222;SDS011;7557;51.698;3.942;2023-02-08T08:41:14;25.52;;;20.85;;
9222;SDS011;7557;51.698;3.942;2023-02-08T08:43:42;23.20;;;20.13;;
9222;SDS011;7557;51.698;3.942;2023-02-08T08:46:10;21.23;;;18.33;;
9222;SDS011;7557;51.698;3.942;2023-02-08T08:48:39;22.97;;;18.87;;
9222;SDS011;7557;51.698;3.942;2023-02-08T08:51:06;24.43;;;19.17;;
9222;SDS011;7557;51.698;3.942;2023-02-08T08:53:34;19.33;;;16.97;;
9222;SDS011;7557;51.698;3.942;2023-02-08T08:56:02;21.47;;;18.30;;
9222;SDS011;7557;51.698;3.942;2023-02-08T08:58:31;23.43;;;18.00;;
9222;SDS011;7557;51.698;3.942;2023-02-08T09:00:59;23.33;;;18.13;;
9222;SDS011;7557;51.698;3.942;2023-02-08T09:03:27;21.33;;;18.40;;
9222;SDS011;7557;51.698;3.942;2023-02-08T09:05:55;21.57;;;18.20;;
9222;SDS011;7557;51.698;3.942;2023-02-08T09:08:23;22.83;;;18.17;;
9222;SDS011;7557;51.698;3.942;2023-02-08T09:10:50;20.20;;;18.00;;
9222;SDS011;7557;51.698;3.942;2023-02-08T09:13:18;19.77;;;17.63;;
9222;SDS011;7557;51.698;3.942;2023-02-08T09:15:47;20.27;;;17.50;;
9222;SDS011;7557;51.698;3.942;2023-02-08T09:18:15;21.40;;;18.60;;
9222;SDS011;7557;51.698;3.942;2023-02-08T09:20:43;19.87;;;17.27;;
9222;SDS011;7557;51.698;3.942;2023-02-08T09:23:10;24.33;;;18.37;;
9222;SDS011;7557;51.698;3.942;2023-02-08T09:25:38;19.70;;;17.60;;
9222;SDS011;7557;51.698;3.942;2023-02-08T09:28:06;19.43;;;17.33;;
9222;SDS011;7557;51.698;3.942;2023-02-08T09:30:34;21.23;;;17.20;;
9222;SDS011;7557;51.698;3.942;2023-02-08T09:33:03;20.87;;;18.63;;
9222;SDS011;7557;51.698;3.942;2023-02-08T09:35:30;18.13;;;16.30;;
9222;SDS011;7557;51.698;3.942;2023-02-08T09:37:58;18.93;;;16.90;;
9222;SDS011;7557;51.698;3.942;2023-02-08T09:40:32;20.33;;;17.33;;
9222;SDS011;7557;51.698;3.942;2023-02-08T09:43:07;19.40;;;17.23;;
9222;SDS011;7557;51.698;3.942;2023-02-08T09:45:46;18.63;;;16.67;;
9222;SDS011;7557;51.698;3.942;2023-02-08T09:48:21;19.50;;;16.97;;
9222;SDS011;7557;51.698;3.942;2023-02-08T09:50:52;19.67;;;16.87;;
9222;SDS011;7557;51.698;3.942;2023-02-08T09:53:27;19.53;;;17.10;;
9222;SDS011;7557;51.698;3.942;2023-02-08T09:55:59;19.53;;;17.47;;
9222;SDS011;7557;51.698;3.942;2023-02-08T09:58:31;18.47;;;16.57;;
9222;SDS011;7557;51.698;3.942;2023-02-08T10:01:02;20.73;;;17.73;;
9222;SDS011;7557;51.698;3.942;2023-02-08T10:03:35;20.60;;;18.40;;
9222;SDS011;7557;51.698;3.942;2023-02-08T10:06:04;19.67;;;17.17;;
9222;SDS011;7557;51.698;3.942;2023-02-08T10:08:33;19.63;;;17.63;;
9222;SDS011;7557;51.698;3.942;2023-02-08T10:11:04;22.70;;;17.83;;
9222;SDS011;7557;51.698;3.942;2023-02-08T10:13:45;21.67;;;19.43;;
9222;SDS011;7557;51.698;3.942;2023-02-08T10:16:37;20.60;;;18.40;;
9222;SDS011;7557;51.698;3.942;2023-02-08T10:19:17;24.40;;;19.47;;
9222;SDS011;7557;51.698;3.942;2023-02-08T10:22:03;24.13;;;19.33;;
9222;SDS011;7557;51.698;3.942;2023-02-08T10:24:48;21.40;;;19.20;;
9222;SDS011;7557;51.698;3.942;2023-02-08T10:27:26;24.97;;;18.17;;
9222;SDS011;7557;51.698;3.942;2023-02-08T10:30:00;20.07;;;17.63;;
9222;SDS011;7557;51.698;3.942;2023-02-08T10:32:44;23.77;;;18.83;;
9222;SDS011;7557;51.698;3.942;2023-02-08T10:35:27;21.77;;;18.47;;
9222;SDS011;7557;51.698;3.942;2023-02-08T10:38:03;23.20;;;19.20;;
9222;SDS011;7557;51.698;3.942;2023-02-08T10:40:54;20.73;;;18.20;;
9222;SDS011;7557;51.698;3.942;2023-02-08T10:43:27;19.47;;;17.30;;
9222;SDS011;7557;51.698;3.942;2023-02-08T10:46:04;21.17;;;18.90;;
9222;SDS011;7557;51.698;3.942;2023-02-08T10:48:41;20.73;;;18.53;;
9222;SDS011;7557;51.698;3.942;2023-02-08T10:51:24;20.60;;;18.03;;
9222;SDS011;7557;51.698;3.942;2023-02-08T10:53:51;19.23;;;17.20;;
9222;SDS011;7557;51.698;3.942;2023-02-08T10:56:23;25.00;;;19.13;;
9222;SDS011;7557;51.698;3.942;2023-02-08T10:59:00;21.03;;;18.50;;
9222;SDS011;7557;51.698;3.942;2023-02-08T11:01:33;22.77;;;19.00;;
9222;SDS011;7557;51.698;3.942;2023-02-08T11:04:00;21.97;;;19.63;;
9222;SDS011;7557;51.698;3.942;2023-02-08T11:06:31;23.97;;;19.73;;
9222;SDS011;7557;51.698;3.942;2023-02-08T11:08:58;20.63;;;18.43;;
9222;SDS011;7557;51.698;3.942;2023-02-08T11:11:26;21.33;;;18.70;;
9222;SDS011;7557;51.698;3.942;2023-02-08T11:14:14;21.97;;;19.50;;
9222;SDS011;7557;51.698;3.942;2023-02-08T11:16:47;22.73;;;19.93;;
9222;SDS011;7557;51.698;3.942;2023-02-08T11:19:19;23.20;;;20.87;;
9222;SDS011;7557;51.698;3.942;2023-02-08T11:21:50;20.77;;;18.70;;
9222;SDS011;7557;51.698;3.942;2023-02-08T11:24:22;21.67;;;19.47;;
9222;SDS011;7557;51.698;3.942;2023-02-08T11:26:53;22.13;;;18.70;;
9222;SDS011;7557;51.698;3.942;2023-02-08T11:29:22;22.20;;;19.77;;
9222;SDS011;7557;51.698;3.942;2023-02-08T11:31:56;21.80;;;19.27;;
9222;SDS011;7557;51.698;3.942;2023-02-08T11:34:25;20.60;;;18.43;;
9222;SDS011;7557;51.698;3.942;2023-02-08T11:36:56;22.90;;;18.33;;
9222;SDS011;7557;51.698;3.942;2023-02-08T11:39:26;27.40;;;18.43;;
9222;SDS011;7557;51.698;3.942;2023-02-08T11:41:57;20.13;;;18.10;;
9222;SDS011;7557;51.698;3.942;2023-02-08T11:44:26;22.53;;;19.87;;
9222;SDS011;7557;51.698;3.942;2023-02-08T11:46:58;22.00;;;18.47;;
9222;SDS011;7557;51.698;3.942;2023-02-08T11:49:30;23.80;;;18.53;;
9222;SDS011;7557;51.698;3.942;2023-02-08T11:52:05;28.13;;;18.80;;
9222;SDS011;7557;51.698;3.942;2023-02-08T11:54:44;19.00;;;16.93;;
9222;SDS011;7557;51.698;3.942;2023-02-08T11:57:15;22.10;;;17.40;;
9222;SDS011;7557;51.698;3.942;2023-02-08T11:59:44;19.83;;;17.30;;
9222;SDS011;7557;51.698;3.942;2023-02-08T12:02:26;18.37;;;16.47;;
9222;SDS011;7557;51.698;3.942;2023-02-08T12:04:56;21.87;;;17.43;;
9222;SDS011;7557;51.698;3.942;2023-02-08T12:07:29;19.27;;;16.33;;
9222;SDS011;7557;51.698;3.942;2023-02-08T12:10:13;17.97;;;15.30;;
9222;SDS011;7557;51.698;3.942;2023-02-08T12:12:59;18.00;;;16.10;;
9222;SDS011;7557;51.698;3.942;2023-02-08T12:15:49;17.93;;;16.03;;
9222;SDS011;7557;51.698;3.942;2023-02-08T12:18:37;24.33;;;16.27;;
9222;SDS011;7557;51.698;3.942;2023-02-08T12:21:29;18.27;;;15.07;;
9222;SDS011;7557;51.698;3.942;2023-02-08T12:24:05;19.57;;;15.37;;
9222;SDS011;7557;51.698;3.942;2023-02-08T12:26:51;16.67;;;14.93;;
9222;SDS011;7557;51.698;3.942;2023-02-08T12:29:34;17.20;;;14.80;;
9222;SDS011;7557;51.698;3.942;2023-02-08T12:32:16;18.07;;;15.30;;
9222;SDS011;7557;51.698;3.942;2023-02-08T12:35:06;22.07;;;16.17;;
9222;SDS011;7557;51.698;3.942;2023-02-08T12:37:51;16.43;;;14.73;;
9222;SDS011;7557;51.698;3.942;2023-02-08T12:40:46;17.17;;;14.97;;
9222;SDS011;7557;51.698;3.942;2023-02-08T12:43:35;15.57;;;13.47;;
9222;SDS011;7557;51.698;3.942;2023-02-08T12:46:10;18.73;;;14.83;;
9222;SDS011;7557;51.698;3.942;2023-02-08T12:49:09;14.60;;;13.10;;
9222;SDS011;7557;51.698;3.942;2023-02-08T12:51:56;15.27;;;12.73;;
9222;SDS011;7557;51.698;3.942;2023-02-08T12:54:32;16.80;;;12.67;;
9222;SDS011;7557;51.698;3.942;2023-02-08T12:57:04;13.77;;;12.37;;
9222;SDS011;7557;51.698;3.942;2023-02-08T12:59:37;15.93;;;12.93;;
9222;SDS011;7557;51.698;3.942;2023-02-08T13:02:10;15.40;;;13.13;;
9222;SDS011;7557;51.698;3.942;2023-02-08T13:04:44;14.57;;;13.00;;
9222;SDS011;7557;51.698;3.942;2023-02-08T13:07:15;13.67;;;11.87;;
9222;SDS011;7557;51.698;3.942;2023-02-08T13:09:47;12.93;;;11.53;;
9222;SDS011;7557;51.698;3.942;2023-02-08T13:12:24;11.47;;;10.37;;
9222;SDS011;7557;51.698;3.942;2023-02-08T13:14:54;13.67;;;11.37;;
9222;SDS011;7557;51.698;3.942;2023-02-08T13:17:27;11.50;;;10.33;;
9222;SDS011;7557;51.698;3.942;2023-02-08T13:20:01;14.80;;;12.17;;
9222;SDS011;7557;51.698;3.942;2023-02-08T13:22:32;17.27;;;12.93;;
9222;SDS011;7557;51.698;3.942;2023-02-08T13:25:03;13.87;;;12.37;;
9222;SDS011;7557;51.698;3.942;2023-02-08T13:27:41;20.00;;;14.00;;
9222;SDS011;7557;51.698;3.942;2023-02-08T13:30:14;12.87;;;11.60;;
9222;SDS011;7557;51.698;3.942;2023-02-08T13:32:44;13.43;;;11.80;;
9222;SDS011;7557;51.698;3.942;2023-02-08T13:35:15;13.37;;;11.27;;
9222;SDS011;7557;51.698;3.942;2023-02-08T13:37:48;12.93;;;11.53;;
9222;SDS011;7557;51.698;3.942;2023-02-08T13:40:17;12.63;;;10.43;;
9222;SDS011;7557;51.698;3.942;2023-02-08T13:42:54;13.70;;;12.03;;
9222;SDS011;7557;51.698;3.942;2023-02-08T13:45:27;12.53;;;11.23;;
9222;SDS011;7557;51.698;3.942;2023-02-08T13:47:59;12.27;;;10.70;;
9222;SDS011;7557;51.698;3.942;2023-02-08T13:50:39;12.87;;;11.17;;
9222;SDS011;7557;51.698;3.942;2023-02-08T13:53:09;13.10;;;11.70;;
9222;SDS011;7557;51.698;3.942;2023-02-08T13:58:27;12.50;;;10.90;;
9222;SDS011;7557;51.698;3.942;2023-02-08T14:01:05;11.93;;;10.80;;
9222;SDS011;7557;51.698;3.942;2023-02-08T14:03:41;11.30;;;9.80;;
9222;SDS011;7557;51.698;3.942;2023-02-08T14:06:15;12.53;;;11.23;;
9222;SDS011;7557;51.698;3.942;2023-02-08T14:08:49;14.20;;;11.13;;
9222;SDS011;7557;51.698;3.942;2023-02-08T14:11:25;12.63;;;10.80;;
9222;SDS011;7557;51.698;3.942;2023-02-08T14:14:00;11.13;;;9.50;;
9222;SDS011;7557;51.698;3.942;2023-02-08T14:16:31;12.67;;;9.73;;
9222;SDS011;7557;51.698;3.942;2023-02-08T14:19:00;10.67;;;9.57;;
9222;SDS011;7557;51.698;3.942;2023-02-08T14:21:31;9.87;;;8.83;;
9222;SDS011;7557;51.698;3.942;2023-02-08T14:24:03;13.00;;;9.50;;
9222;SDS011;7557;51.698;3.942;2023-02-08T14:26:32;10.00;;;9.00;;
9222;SDS011;7557;51.698;3.942;2023-02-08T14:29:04;11.03;;;9.37;;
9222;SDS011;7557;51.698;3.942;2023-02-08T14:31:37;9.87;;;8.97;;
9222;SDS011;7557;51.698;3.942;2023-02-08T14:34:19;9.97;;;8.97;;
9222;SDS011;7557;51.698;3.942;2023-02-08T14:36:59;9.40;;;8.40;;
9222;SDS011;7557;51.698;3.942;2023-02-08T14:39:29;9.07;;;8.17;;
9222;SDS011;7557;51.698;3.942;2023-02-08T14:41:59;10.10;;;8.43;;
9222;SDS011;7557;51.698;3.942;2023-02-08T14:50:51;7.30;;;6.70;;
9222;SDS011;7557;51.698;3.942;2023-02-08T14:53:24;12.00;;;8.00;;
9222;SDS011;7557;51.698;3.942;2023-02-08T14:55:58;8.43;;;7.57;;
9222;SDS011;7557;51.698;3.942;2023-02-08T14:58:31;8.93;;;8.07;;
9222;SDS011;7557;51.698;3.942;2023-02-08T15:01:05;9.73;;;7.97;;
9222;SDS011;7557;51.698;3.942;2023-02-08T15:03:37;8.87;;;7.90;;
9222;SDS011;7557;51.698;3.942;2023-02-08T15:06:14;8.77;;;7.97;;
9222;SDS011;7557;51.698;3.942;2023-02-08T15:09:12;8.20;;;7.37;;
9222;SDS011;7557;51.698;3.942;2023-02-08T15:11:46;7.53;;;6.83;;
9222;SDS011;7557;51.698;3.942;2023-02-08T15:14:17;9.23;;;7.60;;
9222;SDS011;7557;51.698;3.942;2023-02-08T15:16:47;8.23;;;7.53;;
9222;SDS011;7557;51.698;3.942;2023-02-08T15:19:21;9.43;;;7.53;;
9222;SDS011;7557;51.698;3.942;2023-02-08T15:21:51;11.57;;;8.20;;
9222;SDS011;7557;51.698;3.942;2023-02-08T15:24:20;8.93;;;8.03;;
9222;SDS011;7557;51.698;3.942;2023-02-08T15:26:54;10.30;;;8.27;;
9222;SDS011;7557;51.698;3.942;2023-02-08T15:29:23;8.80;;;7.90;;